Time;durP1;ratioP1;P1;durP2;ratioP2;P2;SDS_P1;SDS_P2;PMS_P1;PMS_P2;Temp;Humidity;BMP_temperature;BMP_pressure;BME280_temperature;BME280_humidity;BME280_pressure;Samples;Min_cycle;Max_cycle;Signal;HPM_P1;HPM_P2
2024/01/01 00:00:12;;;;;;;6.43;2.00;;;7.50;99.90;;;;;;5117456;28;20538;-60
2024/01/01 00:02:38;;;;;;;9.23;2.28;;;7.60;99.90;;;;;;5117367;28;20180;-60
2024/01/01 00:05:04;;;;;;;10.65;2.53;;;7.50;99.90;;;;;;5117337;28;20173;-60
2024/01/01 00:07:29;;;;;;;4.90;1.63;;;7.70;99.90;;;;;;5117207;28;20325;-60
2024/01/01 00:09:55;;;;;;;3.50;1.63;;;7.60;99.90;;;;;;5117505;28;20199;-60
2024/01/01 00:12:21;;;;;;;6.82;1.67;;;7.40;99.90;;;;;;5117225;28;20184;-60
2024/01/01 00:14:47;;;;;;;9.30;2.03;;;7.30;99.90;;;;;;5117137;28;20218;-59
2024/01/01 00:17:13;;;;;;;4.38;1.50;;;7.40;99.90;;;;;;5117122;28;20255;-59
2024/01/01 00:19:39;;;;;;;3.45;1.35;;;7.40;99.90;;;;;;5117012;28;20183;-59
2024/01/01 00:22:05;;;;;;;5.60;1.80;;;7.40;99.90;;;;;;5116777;28;20251;-59
2024/01/01 00:24:31;;;;;;;7.53;1.83;;;7.30;99.90;;;;;;5117156;28;20189;-59
2024/01/01 00:26:57;;;;;;;7.60;2.17;;;7.30;99.90;;;;;;5116906;28;20584;-59
2024/01/01 00:29:24;;;;;;;7.80;2.28;;;7.30;99.90;;;;;;5116799;28;20580;-59
2024/01/01 00:31:53;;;;;;;6.75;2.20;;;7.40;99.90;;;;;;5116912;28;20263;-60
2024/01/01 00:34:20;;;;;;;10.40;2.55;;;7.40;99.90;;;;;;5116334;28;20180;-59
2024/01/01 00:36:46;;;;;;;8.27;2.58;;;7.50;99.90;;;;;;5116751;28;20173;-59
2024/01/01 00:39:11;;;;;;;9.60;2.50;;;7.50;99.90;;;;;;5116766;28;20176;-60
2024/01/01 00:41:37;;;;;;;8.60;3.00;;;7.60;99.90;;;;;;5116441;28;20568;-59
2024/01/01 00:44:03;;;;;;;10.50;2.75;;;7.60;99.90;;;;;;5116622;28;20180;-60
2024/01/01 00:46:29;;;;;;;10.82;2.75;;;7.60;99.90;;;;;;5116539;28;20242;-60
2024/01/01 00:48:55;;;;;;;12.63;3.47;;;7.70;99.90;;;;;;5116585;28;20622;-60
2024/01/01 00:51:21;;;;;;;13.77;3.05;;;7.70;99.90;;;;;;5116505;28;20166;-60
2024/01/01 00:53:46;;;;;;;12.82;2.70;;;7.70;99.90;;;;;;5116392;28;20230;-60
2024/01/01 00:56:12;;;;;;;9.38;3.22;;;7.60;99.90;;;;;;5116555;28;20265;-60
2024/01/01 00:58:38;;;;;;;7.95;3.03;;;7.60;99.90;;;;;;5116300;28;20233;-59
2024/01/01 01:01:04;;;;;;;13.90;3.08;;;7.60;99.90;;;;;;5116228;28;20177;-60
2024/01/01 01:03:31;;;;;;;10.95;3.15;;;7.70;99.90;;;;;;5116189;28;20177;-60
2024/01/01 01:05:56;;;;;;;11.27;2.75;;;7.80;99.90;;;;;;5116210;28;20173;-59
2024/01/01 01:08:22;;;;;;;12.02;2.92;;;7.70;99.90;;;;;;5116096;28;20683;-59
2024/01/01 01:10:48;;;;;;;10.52;3.00;;;7.70;99.90;;;;;;5116269;28;20164;-59
2024/01/01 01:13:15;;;;;;;8.68;2.75;;;7.80;99.90;;;;;;5116390;28;20176;-59
2024/01/01 01:15:40;;;;;;;14.07;3.47;;;7.80;99.90;;;;;;5115803;28;20172;-59
2024/01/01 01:18:06;;;;;;;14.48;3.70;;;7.70;99.90;;;;;;5115959;28;20181;-60
2024/01/01 01:20:32;;;;;;;14.02;2.92;;;7.70;99.90;;;;;;5115849;28;20180;-60
2024/01/01 01:22:58;;;;;;;11.43;3.88;;;7.70;99.90;;;;;;5115970;28;20255;-59
2024/01/01 01:25:24;;;;;;;11.30;3.83;;;7.80;99.90;;;;;;5116224;28;20173;-60
2024/01/01 01:27:50;;;;;;;10.10;3.08;;;7.80;99.90;;;;;;5115808;28;20204;-60
2024/01/01 01:30:15;;;;;;;11.65;3.22;;;7.80;99.90;;;;;;5115752;28;20166;-59
2024/01/01 01:32:41;;;;;;;12.13;3.22;;;7.80;99.90;;;;;;5115667;28;20503;-59
2024/01/01 01:35:07;;;;;;;11.80;3.30;;;7.80;99.90;;;;;;5116080;28;20180;-59
2024/01/01 01:37:33;;;;;;;12.38;3.42;;;7.60;99.90;;;;;;5115546;28;20231;-59
2024/01/01 01:39:58;;;;;;;15.52;3.70;;;7.60;99.90;;;;;;5115161;28;20179;-60
2024/01/01 01:42:24;;;;;;;14.77;3.28;;;7.60;99.90;;;;;;5115503;28;20186;-59
2024/01/01 01:44:49;;;;;;;10.57;2.72;;;7.70;99.90;;;;;;5115292;28;20522;-59
2024/01/01 01:47:16;;;;;;;15.02;3.20;;;7.60;99.90;;;;;;5114593;28;20611;-59
2024/01/01 01:49:41;;;;;;;17.42;3.95;;;7.70;99.90;;;;;;5115415;28;20176;-59
2024/01/01 01:52:10;;;;;;;16.52;3.38;;;7.70;99.90;;;;;;5115322;28;20670;-59
2024/01/01 01:54:36;;;;;;;18.02;3.33;;;7.70;99.90;;;;;;5115260;28;20175;-59
2024/01/01 01:57:06;;;;;;;13.65;3.03;;;7.80;99.90;;;;;;5115216;28;20656;-59
2024/01/01 01:59:32;;;;;;;11.38;2.75;;;7.80;99.90;;;;;;5115204;28;20161;-59
2024/01/01 02:01:58;;;;;;;9.98;3.35;;;7.80;99.90;;;;;;5115190;27;20184;-59
2024/01/01 02:04:24;;;;;;;11.50;3.10;;;7.80;99.90;;;;;;5115077;28;20216;-60
2024/01/01 02:06:50;;;;;;;14.68;3.35;;;7.80;99.90;;;;;;5114922;28;20201;-60
2024/01/01 02:09:16;;;;;;;12.30;3.00;;;7.70;99.90;;;;;;5114711;28;20609;-60
2024/01/01 02:11:42;;;;;;;14.23;2.75;;;7.70;99.90;;;;;;5113803;28;20171;-60
2024/01/01 02:14:13;;;;;;;12.05;2.92;;;7.80;99.90;;;;;;5114867;28;20266;-59
2024/01/01 02:16:39;;;;;;;13.25;2.80;;;7.80;99.90;;;;;;5114818;28;20180;-59
2024/01/01 02:19:18;;;;;;;10.77;3.05;;;7.70;99.90;;;;;;5114806;28;20204;-60
2024/01/01 02:21:44;;;;;;;11.60;2.85;;;7.60;99.90;;;;;;5115006;28;20149;-59
2024/01/01 02:24:09;;;;;;;14.13;3.33;;;7.70;99.90;;;;;;5114993;28;20176;-60
2024/01/01 02:26:35;;;;;;;14.77;2.90;;;7.70;99.90;;;;;;5114605;28;20675;-59
2024/01/01 02:29:01;;;;;;;19.20;3.40;;;7.80;99.90;;;;;;5114635;28;20491;-59
2024/01/01 02:31:26;;;;;;;14.23;2.85;;;7.70;99.90;;;;;;5114524;28;20663;-59
2024/01/01 02:33:52;;;;;;;17.17;3.40;;;7.80;99.90;;;;;;5114660;28;20184;-59
2024/01/01 02:36:18;;;;;;;11.90;2.85;;;7.70;99.90;;;;;;5114489;28;20187;-59
2024/01/01 02:38:43;;;;;;;15.25;3.25;;;7.80;99.90;;;;;;5114503;28;20708;-59
2024/01/01 02:41:09;;;;;;;16.83;3.17;;;7.80;99.90;;;;;;5114363;28;20181;-59
2024/01/01 02:43:35;;;;;;;17.60;3.30;;;7.80;99.90;;;;;;5114341;28;20640;-59
2024/01/01 02:46:00;;;;;;;13.15;3.70;;;7.80;99.90;;;;;;5114097;28;20540;-59
2024/01/01 02:48:26;;;;;;;11.93;2.83;;;7.70;99.90;;;;;;5114234;28;20692;-60
2024/01/01 02:50:52;;;;;;;12.30;2.97;;;7.80;99.90;;;;;;5114315;28;20181;-59
2024/01/01 02:53:18;;;;;;;9.23;2.85;;;7.80;99.90;;;;;;5114170;28;20234;-60
2024/01/01 02:55:44;;;;;;;13.85;2.83;;;7.80;99.90;;;;;;5114219;28;20176;-60
2024/01/01 02:58:10;;;;;;;15.73;3.53;;;7.70;99.90;;;;;;5113896;28;20181;-60
2024/01/01 03:00:36;;;;;;;16.80;3.15;;;7.70;99.90;;;;;;5114269;28;20264;-59
2024/01/01 03:03:03;;;;;;;8.75;2.42;;;7.70;99.90;;;;;;5114122;28;20282;-59
2024/01/01 03:05:28;;;;;;;14.15;2.63;;;7.80;99.90;;;;;;5114051;28;20175;-59
2024/01/01 03:07:54;;;;;;;11.50;2.63;;;7.60;99.90;;;;;;5113929;28;20308;-59
2024/01/01 03:10:20;;;;;;;11.85;2.70;;;7.60;99.90;;;;;;5114052;28;20255;-59
2024/01/01 03:12:46;;;;;;;12.07;2.85;;;7.50;99.90;;;;;;5113925;28;20208;-60
2024/01/01 03:15:12;;;;;;;11.20;3.33;;;7.60;99.90;;;;;;5114547;28;20202;-60
2024/01/01 03:17:37;;;;;;;7.72;2.00;;;7.70;99.90;;;;;;5113913;28;20172;-60
2024/01/01 03:20:06;;;;;;;11.32;2.63;;;7.60;99.90;;;;;;5114171;28;20173;-60
2024/01/01 03:22:32;;;;;;;11.77;2.20;;;7.60;99.90;;;;;;5113888;28;20255;-59
2024/01/01 03:24:58;;;;;;;7.65;2.10;;;7.60;99.90;;;;;;5113587;28;20203;-60
2024/01/01 03:27:23;;;;;;;9.80;2.80;;;7.70;99.90;;;;;;5113446;28;20207;-60
2024/01/01 03:29:49;;;;;;;10.32;2.80;;;7.70;99.90;;;;;;5113592;28;20176;-60
2024/01/01 03:32:15;;;;;;;9.38;2.50;;;7.80;99.90;;;;;;5113736;28;20188;-59
2024/01/01 03:34:42;;;;;;;9.18;2.50;;;7.70;99.90;;;;;;5113836;28;20562;-60
2024/01/01 03:37:07;;;;;;;10.02;2.65;;;7.70;99.90;;;;;;5113756;28;20177;-59
2024/01/01 03:39:33;;;;;;;11.65;2.92;;;7.70;99.90;;;;;;5113782;28;20174;-60
2024/01/01 03:41:59;;;;;;;11.52;2.40;;;7.70;99.90;;;;;;5114063;28;20499;-60
2024/01/01 03:44:24;;;;;;;15.18;3.65;;;7.60;99.90;;;;;;5113710;28;20176;-60
2024/01/01 03:46:50;;;;;;;10.95;2.75;;;7.70;99.90;;;;;;5113322;28;20233;-60
2024/01/01 03:49:16;;;;;;;12.27;2.67;;;7.70;99.90;;;;;;5113666;28;20228;-60
2024/01/01 03:51:41;;;;;;;13.90;3.08;;;7.70;99.90;;;;;;5113462;28;20184;-60
2024/01/01 03:54:07;;;;;;;9.20;2.50;;;7.70;99.90;;;;;;5113696;28;20203;-59
2024/01/01 03:56:33;;;;;;;13.23;2.58;;;7.80;99.90;;;;;;5113551;28;20204;-59
2024/01/01 03:58:58;;;;;;;11.82;2.70;;;7.80;99.90;;;;;;5113588;28;20177;-59
2024/01/01 04:01:26;;;;;;;13.98;3.10;;;7.70;99.90;;;;;;5113645;28;20229;-60
2024/01/01 04:03:52;;;;;;;11.32;2.92;;;7.70;99.90;;;;;;5113229;28;20564;-59
2024/01/01 04:06:18;;;;;;;12.00;2.55;;;7.70;99.90;;;;;;5113352;28;20675;-59
2024/01/01 04:08:44;;;;;;;9.63;2.53;;;7.60;99.90;;;;;;5113872;28;20181;-59
2024/01/01 04:11:09;;;;;;;9.43;2.45;;;7.70;99.90;;;;;;5117631;28;20170;-59
2024/01/01 04:13:35;;;;;;;8.20;2.85;;;7.70;99.90;;;;;;5117375;28;20165;-60
2024/01/01 04:16:02;;;;;;;11.75;2.60;;;7.70;99.90;;;;;;5117050;28;20630;-60
2024/01/01 04:18:27;;;;;;;11.63;3.13;;;7.70;99.90;;;;;;5116866;28;20268;-60
2024/01/01 04:20:53;;;;;;;12.68;2.50;;;7.60;99.90;;;;;;5117233;28;20231;-60
2024/01/01 04:23:19;;;;;;;10.82;2.60;;;7.60;99.90;;;;;;5117251;28;20231;-60
2024/01/01 04:25:44;;;;;;;9.52;2.47;;;7.70;99.90;;;;;;5117315;28;20180;-59
2024/01/01 04:28:10;;;;;;;10.27;2.58;;;7.60;99.90;;;;;;5117147;28;20209;-59
2024/01/01 04:30:35;;;;;;;11.88;2.90;;;7.60;99.90;;;;;;5116954;28;20173;-60
2024/01/01 04:33:01;;;;;;;17.52;2.83;;;7.60;99.90;;;;;;5117021;28;20525;-60
2024/01/01 04:35:27;;;;;;;13.02;3.10;;;7.50;99.90;;;;;;5116882;28;20176;-59
2024/01/01 04:37:52;;;;;;;14.38;3.00;;;7.60;99.90;;;;;;5116565;28;20552;-59
2024/01/01 04:40:20;;;;;;;12.40;3.00;;;7.60;99.90;;;;;;5117046;28;20176;-60
2024/01/01 04:42:48;;;;;;;7.80;2.30;;;7.60;99.90;;;;;;5116687;28;20169;-59
2024/01/01 04:45:14;;;;;;;10.18;2.58;;;7.50;99.90;;;;;;5116619;28;20379;-60
2024/01/01 04:47:40;;;;;;;9.93;2.60;;;7.50;99.90;;;;;;5116670;28;20207;-59
2024/01/01 04:50:07;;;;;;;9.05;2.45;;;7.50;99.90;;;;;;5116526;28;20629;-59
2024/01/01 04:52:32;;;;;;;9.15;2.30;;;7.60;99.90;;;;;;5116562;28;20177;-60
2024/01/01 04:54:58;;;;;;;8.30;2.35;;;7.70;99.90;;;;;;5115140;28;20182;-60
2024/01/01 04:57:23;;;;;;;13.90;2.58;;;7.70;99.90;;;;;;5116699;28;20222;-59
2024/01/01 04:59:49;;;;;;;4.85;1.92;;;7.70;99.90;;;;;;5116388;28;20220;-59
2024/01/01 05:02:15;;;;;;;10.80;2.53;;;7.70;99.90;;;;;;5116633;28;20622;-60
2024/01/01 05:04:41;;;;;;;10.98;2.88;;;7.70;99.90;;;;;;5116221;28;20178;-60
2024/01/01 05:07:06;;;;;;;13.43;2.63;;;7.70;99.90;;;;;;5115972;28;20210;-59
2024/01/01 05:09:32;;;;;;;10.95;1.98;;;7.60;99.90;;;;;;5116215;28;20177;-60
2024/01/01 05:11:58;;;;;;;10.98;2.85;;;7.60;99.90;;;;;;5116199;28;20219;-60
2024/01/01 05:14:24;;;;;;;14.35;2.53;;;7.60;99.90;;;;;;5116238;28;20622;-59
2024/01/01 05:16:50;;;;;;;7.75;2.25;;;7.70;99.90;;;;;;5116042;28;20259;-59
2024/01/01 05:19:16;;;;;;;11.55;2.65;;;7.70;99.90;;;;;;5115964;28;20173;-59
2024/01/01 05:21:41;;;;;;;9.88;2.33;;;7.60;99.90;;;;;;5115696;28;20171;-59
2024/01/01 05:24:07;;;;;;;9.57;2.22;;;7.60;99.90;;;;;;5116241;28;20164;-59
2024/01/01 05:26:33;;;;;;;9.75;2.47;;;7.60;99.90;;;;;;5115742;28;20308;-60
2024/01/01 05:28:59;;;;;;;11.45;2.22;;;7.60;99.90;;;;;;5115814;28;20173;-60
2024/01/01 05:31:24;;;;;;;7.65;2.00;;;7.50;99.90;;;;;;5115708;28;20614;-59
2024/01/01 05:33:50;;;;;;;7.95;2.50;;;7.50;99.90;;;;;;5115426;28;20622;-60
2024/01/01 05:36:15;;;;;;;12.90;2.80;;;7.70;99.90;;;;;;5115670;28;20169;-60
2024/01/01 05:38:41;;;;;;;8.70;1.80;;;7.70;99.90;;;;;;5115868;28;20227;-60
2024/01/01 05:41:10;;;;;;;9.10;2.20;;;7.60;99.90;;;;;;5115861;28;20602;-60
2024/01/01 05:43:36;;;;;;;10.38;2.30;;;7.70;99.90;;;;;;5115498;28;20169;-59
2024/01/01 05:46:02;;;;;;;7.38;2.20;;;7.70;99.90;;;;;;5115440;28;20523;-59
2024/01/01 05:48:27;;;;;;;10.38;2.50;;;7.60;99.90;;;;;;5115408;28;20642;-60
2024/01/01 05:50:53;;;;;;;8.15;2.38;;;7.60;99.90;;;;;;5115372;28;20253;-59
2024/01/01 05:53:19;;;;;;;11.70;2.58;;;7.50;99.90;;;;;;5115323;28;20173;-60
2024/01/01 05:55:44;;;;;;;13.45;3.08;;;7.70;99.90;;;;;;5115299;28;20181;-60
2024/01/01 05:58:10;;;;;;;8.93;2.25;;;7.70;99.90;;;;;;5115242;28;20274;-59
2024/01/01 06:00:37;;;;;;;9.50;2.53;;;7.70;99.90;;;;;;5115120;28;20258;-59
2024/01/01 06:03:05;;;;;;;10.70;3.08;;;7.80;99.90;;;;;;5115065;28;20180;-60
2024/01/01 06:05:33;;;;;;;9.70;2.70;;;7.70;99.90;;;;;;5115102;28;20181;-60
2024/01/01 06:08:03;;;;;;;9.25;2.45;;;7.80;99.90;;;;;;5114920;28;20208;-59
2024/01/01 06:10:32;;;;;;;12.85;3.35;;;7.70;99.90;;;;;;5114774;28;20524;-60
2024/01/01 06:12:58;;;;;;;13.55;3.13;;;7.80;99.90;;;;;;5114961;28;20639;-60
2024/01/01 06:15:25;;;;;;;10.30;2.88;;;7.80;99.90;;;;;;5114941;28;20173;-60
2024/01/01 06:17:52;;;;;;;10.80;2.67;;;7.80;99.90;;;;;;5115175;28;20562;-59
2024/01/01 06:20:18;;;;;;;13.80;3.40;;;7.70;99.90;;;;;;5115013;28;20582;-60
2024/01/01 06:22:46;;;;;;;11.40;2.45;;;7.60;99.90;;;;;;5114993;28;20263;-59
2024/01/01 06:25:11;;;;;;;9.07;2.40;;;7.70;99.90;;;;;;5114745;28;20173;-60
2024/01/01 06:27:38;;;;;;;12.43;2.50;;;7.70;99.90;;;;;;5114174;28;20217;-59
2024/01/01 06:30:05;;;;;;;12.63;2.95;;;7.60;99.90;;;;;;5114624;28;20234;-59
2024/01/01 06:32:31;;;;;;;9.10;2.90;;;7.70;99.90;;;;;;5114104;28;20189;-59
2024/01/01 06:34:57;;;;;;;8.30;2.75;;;7.70;99.90;;;;;;5114313;28;20175;-59
2024/01/01 06:37:23;;;;;;;12.13;2.50;;;7.70;99.90;;;;;;5114216;28;20222;-60
2024/01/01 06:39:48;;;;;;;13.10;2.42;;;7.70;99.90;;;;;;5114387;28;20181;-60
2024/01/01 06:42:16;;;;;;;11.13;2.85;;;7.80;99.90;;;;;;5114173;28;20265;-60
2024/01/01 06:44:43;;;;;;;9.85;3.17;;;7.80;99.90;;;;;;5114050;28;20227;-59
2024/01/01 06:47:09;;;;;;;13.63;3.05;;;7.80;99.90;;;;;;5114866;28;20221;-59
2024/01/01 06:49:35;;;;;;;9.68;2.72;;;7.80;99.90;;;;;;5114371;27;20335;-60
2024/01/01 06:52:03;;;;;;;9.68;2.20;;;7.70;99.90;;;;;;5114332;28;20674;-60
2024/01/01 06:54:29;;;;;;;7.90;1.92;;;7.70;99.90;;;;;;5114105;28;20691;-60
2024/01/01 06:56:54;;;;;;;11.68;2.80;;;7.80;99.90;;;;;;5114331;28;20181;-60
2024/01/01 06:59:27;;;;;;;11.93;3.40;;;7.70;99.90;;;;;;5114520;28;20285;-60
2024/01/01 07:01:53;;;;;;;11.02;2.67;;;7.70;99.90;;;;;;5114220;28;20544;-60
2024/01/01 07:04:18;;;;;;;8.77;2.72;;;7.70;99.90;;;;;;5114233;28;20173;-59
2024/01/01 07:06:44;;;;;;;9.25;2.47;;;7.70;99.90;;;;;;5113949;28;20209;-60
2024/01/01 07:09:10;;;;;;;7.47;2.38;;;7.70;99.90;;;;;;5114122;28;20180;-59
2024/01/01 07:11:36;;;;;;;10.75;2.53;;;7.70;99.90;;;;;;5114041;28;20243;-59
2024/01/01 07:14:03;;;;;;;10.57;2.53;;;7.70;99.90;;;;;;5114094;28;20222;-59
2024/01/01 07:16:28;;;;;;;11.77;2.58;;;7.70;99.90;;;;;;5113943;28;20387;-59
2024/01/01 07:18:54;;;;;;;6.53;2.08;;;7.80;99.90;;;;;;5114192;28;20176;-59
2024/01/01 07:21:20;;;;;;;9.40;2.60;;;7.90;99.90;;;;;;5113902;28;20177;-60
2024/01/01 07:23:46;;;;;;;8.05;2.08;;;7.90;99.90;;;;;;5114134;28;20248;-59
2024/01/01 07:26:12;;;;;;;7.95;2.30;;;7.80;99.90;;;;;;5113610;28;20612;-60
2024/01/01 07:28:37;;;;;;;8.70;2.10;;;7.70;99.90;;;;;;5113816;28;20209;-60
2024/01/01 07:31:03;;;;;;;10.57;2.33;;;7.70;99.90;;;;;;5114063;28;20531;-59
2024/01/01 07:33:29;;;;;;;10.68;3.03;;;7.80;99.90;;;;;;5113777;28;20201;-60
2024/01/01 07:35:54;;;;;;;10.30;2.50;;;7.90;99.90;;;;;;5113744;28;20177;-59
2024/01/01 07:38:20;;;;;;;10.43;2.83;;;8.00;99.90;;;;;;5113501;28;20310;-59
2024/01/01 07:40:46;;;;;;;12.52;2.17;;;8.00;99.90;;;;;;5113727;28;20196;-60
2024/01/01 07:43:11;;;;;;;10.18;2.58;;;7.90;99.90;;;;;;5113473;28;20229;-60
2024/01/01 07:45:37;;;;;;;10.13;2.00;;;7.80;99.90;;;;;;5117360;28;20173;-59
2024/01/01 07:48:04;;;;;;;9.52;2.30;;;7.90;99.90;;;;;;5117752;28;20258;-59
2024/01/01 07:50:30;;;;;;;8.65;2.63;;;7.80;99.90;;;;;;5117670;28;20181;-60
2024/01/01 07:52:55;;;;;;;10.52;2.42;;;7.70;99.90;;;;;;5117657;28;20226;-60
2024/01/01 07:55:21;;;;;;;7.22;2.22;;;7.80;99.90;;;;;;5117656;28;20173;-60
2024/01/01 07:57:47;;;;;;;10.70;2.80;;;7.80;99.90;;;;;;5117541;28;20179;-60
2024/01/01 08:00:13;;;;;;;13.50;2.58;;;7.80;99.90;;;;;;5117611;28;20177;-60
2024/01/01 08:02:39;;;;;;;12.48;3.10;;;7.80;99.90;;;;;;5117499;28;20182;-60
2024/01/01 08:05:05;;;;;;;10.63;2.70;;;7.80;99.90;;;;;;5117444;28;20185;-61
2024/01/01 08:07:31;;;;;;;8.98;2.47;;;7.80;99.90;;;;;;5117351;28;20341;-60
2024/01/01 08:09:56;;;;;;;9.77;2.30;;;7.80;99.90;;;;;;5117478;28;20264;-60
2024/01/01 08:12:22;;;;;;;9.18;2.60;;;7.80;99.90;;;;;;5117375;28;20675;-60
2024/01/01 08:14:48;;;;;;;12.18;2.38;;;7.90;99.90;;;;;;5117304;28;20173;-60
2024/01/01 08:17:13;;;;;;;9.73;2.50;;;8.00;99.90;;;;;;5117536;28;20317;-60
2024/01/01 08:19:39;;;;;;;7.20;1.90;;;8.00;99.90;;;;;;5117190;28;20184;-60
2024/01/01 08:22:05;;;;;;;5.95;2.35;;;7.90;99.90;;;;;;5117053;28;20244;-60
2024/01/01 08:24:31;;;;;;;6.78;1.80;;;7.90;99.90;;;;;;5117215;28;20250;-60
2024/01/01 08:26:56;;;;;;;11.43;2.30;;;8.00;99.90;;;;;;5116333;28;20209;-60
2024/01/01 08:29:22;;;;;;;6.47;2.42;;;8.00;99.90;;;;;;5116492;28;20561;-60
2024/01/01 08:31:48;;;;;;;9.60;2.35;;;8.10;99.90;;;;;;5114568;28;20196;-60
2024/01/01 08:34:13;;;;;;;8.07;2.13;;;8.00;99.90;;;;;;5116465;28;20682;-60
2024/01/01 08:36:39;;;;;;;11.00;2.75;;;8.00;99.90;;;;;;5117236;28;20660;-60
2024/01/01 08:39:05;;;;;;;11.20;2.72;;;8.00;99.90;;;;;;5115953;28;20663;-60
2024/01/01 08:41:30;;;;;;;10.27;2.60;;;7.90;99.90;;;;;;5116966;28;20176;-60
2024/01/01 08:43:59;;;;;;;9.68;2.38;;;7.90;99.90;;;;;;5116928;28;20240;-60
2024/01/01 08:46:25;;;;;;;10.73;2.70;;;8.00;99.90;;;;;;5116114;28;20181;-60
2024/01/01 08:48:53;;;;;;;10.43;2.60;;;8.10;99.90;;;;;;5116198;28;20180;-60
2024/01/01 08:51:19;;;;;;;10.50;2.55;;;8.10;99.90;;;;;;5115121;28;20576;-60
2024/01/01 08:53:45;;;;;;;9.88;2.45;;;8.00;99.90;;;;;;5116471;28;20269;-60
2024/01/01 08:56:10;;;;;;;12.30;3.30;;;8.10;99.90;;;;;;5115886;28;20169;-61
2024/01/01 08:58:36;;;;;;;9.52;2.65;;;8.20;99.90;;;;;;5116468;28;20184;-60
2024/01/01 09:01:02;;;;;;;13.32;3.40;;;8.20;99.90;;;;;;5116412;28;20517;-60
2024/01/01 09:03:29;;;;;;;12.25;3.08;;;8.30;99.90;;;;;;5116456;28;20177;-60
2024/01/01 09:05:57;;;;;;;11.07;2.40;;;8.20;99.90;;;;;;5116012;28;20177;-60
2024/01/01 09:08:24;;;;;;;10.73;2.92;;;8.30;99.90;;;;;;5116132;28;20678;-60
2024/01/01 09:10:50;;;;;;;12.23;2.95;;;8.30;99.90;;;;;;5115987;28;20545;-60
2024/01/01 09:13:15;;;;;;;13.55;2.70;;;8.20;99.90;;;;;;5116179;28;20170;-60
2024/01/01 09:15:42;;;;;;;11.05;2.70;;;8.30;99.90;;;;;;5115874;28;20252;-61
2024/01/01 09:18:07;;;;;;;13.10;3.05;;;8.20;99.90;;;;;;5115496;28;20169;-60
2024/01/01 09:20:34;;;;;;;13.35;2.83;;;8.30;99.90;;;;;;5114617;28;20177;-61
2024/01/01 09:22:59;;;;;;;11.32;2.53;;;8.30;99.90;;;;;;5115586;28;20583;-59
2024/01/01 09:25:25;;;;;;;10.70;3.47;;;8.40;99.90;;;;;;5115877;28;20175;-59
2024/01/01 09:27:53;;;;;;;12.35;3.00;;;8.30;99.90;;;;;;5115814;28;20194;-62
2024/01/01 09:30:19;;;;;;;12.25;3.17;;;8.30;99.90;;;;;;5115292;28;20215;-60
2024/01/01 09:32:44;;;;;;;12.35;3.03;;;8.20;99.90;;;;;;5115343;28;20222;-60
2024/01/01 09:35:10;;;;;;;12.57;3.63;;;8.20;99.90;;;;;;5115131;28;20176;-60
2024/01/01 09:37:39;;;;;;;10.80;2.50;;;8.30;99.90;;;;;;5115090;28;20168;-59
2024/01/01 09:40:05;;;;;;;11.43;2.85;;;8.30;99.90;;;;;;5115307;28;20173;-59
2024/01/01 09:42:31;;;;;;;10.50;3.10;;;8.30;99.90;;;;;;5115130;28;20173;-60
2024/01/01 09:44:57;;;;;;;11.70;3.03;;;8.30;99.90;;;;;;5114841;28;20660;-60
2024/01/01 09:47:22;;;;;;;15.20;3.75;;;8.40;99.90;;;;;;5114790;28;20212;-60
2024/01/01 09:49:48;;;;;;;19.45;3.85;;;8.30;99.90;;;;;;5115803;28;20177;-59
2024/01/01 09:52:15;;;;;;;10.95;3.10;;;8.40;99.90;;;;;;5115320;28;20681;-59
2024/01/01 09:54:41;;;;;;;12.50;3.50;;;8.30;99.90;;;;;;5115412;28;20192;-60
2024/01/01 09:57:07;;;;;;;21.38;4.05;;;8.30;99.90;;;;;;5115300;28;20573;-59
2024/01/01 09:59:37;;;;;;;13.77;3.75;;;8.40;99.90;;;;;;5114982;28;20205;-59
2024/01/01 10:02:04;;;;;;;14.90;3.63;;;8.50;99.90;;;;;;5115518;28;20177;-59
2024/01/01 10:04:30;;;;;;;12.40;3.47;;;8.50;99.90;;;;;;5115086;28;20181;-59
2024/01/01 10:06:58;;;;;;;14.90;3.33;;;8.40;99.90;;;;;;5114223;28;20212;-59
2024/01/01 10:09:24;;;;;;;16.85;3.97;;;8.30;99.90;;;;;;5114695;28;20603;-59
2024/01/01 10:11:50;;;;;;;12.00;4.07;;;8.30;99.90;;;;;;5114660;28;20260;-59
2024/01/01 10:14:15;;;;;;;11.27;3.03;;;8.30;99.90;;;;;;5115030;28;20576;-60
2024/01/01 10:16:42;;;;;;;13.57;3.80;;;8.30;99.90;;;;;;5114550;28;20634;-60
2024/01/01 10:19:08;;;;;;;16.05;3.55;;;8.40;99.90;;;;;;5114808;28;20184;-59
2024/01/01 10:21:36;;;;;;;16.98;3.50;;;8.60;99.90;;;;;;5114532;28;20176;-59
2024/01/01 10:24:21;;;;;;;18.58;3.78;;;8.50;99.90;;;;;;5115210;28;20543;-59
2024/01/01 10:26:47;;;;;;;13.77;3.30;;;8.40;99.90;;;;;;5114555;28;20216;-60
2024/01/01 10:29:14;;;;;;;16.20;3.70;;;8.40;99.90;;;;;;5114694;28;20169;-59
2024/01/01 10:31:47;;;;;;;12.55;3.53;;;8.30;99.90;;;;;;5114639;28;20507;-59
2024/01/01 10:34:13;;;;;;;19.05;4.22;;;8.40;99.90;;;;;;5114413;28;20174;-61
2024/01/01 10:36:43;;;;;;;12.93;3.50;;;8.50;99.90;;;;;;5114055;28;20286;-59
2024/01/01 10:39:09;;;;;;;17.15;3.75;;;8.40;99.90;;;;;;5114432;28;20169;-60
2024/01/01 10:41:37;;;;;;;16.25;3.63;;;8.30;99.90;;;;;;5114383;28;20709;-59
2024/01/01 10:44:06;;;;;;;17.13;3.72;;;8.40;99.90;;;;;;5114431;28;20169;-59
2024/01/01 10:46:37;;;;;;;20.20;5.55;;;8.50;99.90;;;;;;5114299;28;20173;-61
2024/01/01 10:49:07;;;;;;;11.10;3.63;;;8.40;99.90;;;;;;5114380;28;20618;-60
2024/01/01 10:52:05;;;;;;;12.73;3.65;;;8.20;99.90;;;;;;5114326;28;20158;-59
2024/01/01 10:54:42;;;;;;;18.83;4.05;;;8.30;99.90;;;;;;5114326;28;20161;-59
2024/01/01 10:57:38;;;;;;;13.98;4.00;;;8.20;99.90;;;;;;5114241;28;20200;-59
2024/01/01 11:00:35;;;;;;;18.98;4.00;;;8.20;99.90;;;;;;5112921;28;20508;-61
2024/01/01 11:03:02;;;;;;;13.10;3.17;;;8.20;99.90;;;;;;5114159;28;20166;-59
2024/01/01 11:05:33;;;;;;;13.40;3.85;;;8.30;99.90;;;;;;5114091;28;20196;-61
2024/01/01 11:08:00;;;;;;;13.10;3.33;;;8.30;99.90;;;;;;5114010;28;20227;-61
2024/01/01 11:10:45;;;;;;;17.17;4.10;;;8.30;99.90;;;;;;5113994;28;20268;-61
2024/01/01 11:13:33;;;;;;;13.93;3.72;;;8.30;99.90;;;;;;5113984;28;20318;-61
2024/01/01 11:16:03;;;;;;;14.93;4.07;;;8.40;99.90;;;;;;5113654;28;20169;-60
2024/01/01 11:18:33;;;;;;;16.20;3.53;;;8.30;99.90;;;;;;5113362;28;20174;-61
2024/01/01 11:21:01;;;;;;;19.38;3.92;;;8.40;99.90;;;;;;5113930;28;20184;-60
2024/01/01 11:23:46;;;;;;;21.85;4.72;;;8.30;99.90;;;;;;5113931;28;20226;-60
2024/01/01 11:26:24;;;;;;;16.23;3.47;;;8.40;99.90;;;;;;5113805;28;20197;-60
2024/01/01 11:28:50;;;;;;;17.73;4.03;;;8.60;99.90;;;;;;5113476;28;20754;-61
2024/01/01 11:31:15;;;;;;;21.17;4.90;;;8.60;99.90;;;;;;5113709;28;20180;-61
2024/01/01 11:33:41;;;;;;;15.32;4.05;;;8.70;99.90;;;;;;5113806;28;20534;-61
2024/01/01 11:36:10;;;;;;;16.23;4.55;;;8.70;99.90;;;;;;5113773;28;20645;-60
2024/01/01 11:38:39;;;;;;;15.52;4.25;;;8.70;99.90;;;;;;5113544;28;20173;-62
2024/01/01 11:41:08;;;;;;;14.43;3.75;;;8.80;99.90;;;;;;5113607;28;20535;-59
2024/01/01 11:43:34;;;;;;;15.88;4.03;;;8.80;99.90;;;;;;5113817;28;20165;-61
2024/01/01 11:45:59;;;;;;;15.95;4.20;;;8.90;99.90;;;;;;5113766;28;20519;-59
2024/01/01 11:48:25;;;;;;;12.50;3.80;;;9.00;99.90;;;;;;5113655;28;20677;-59
2024/01/01 11:50:53;;;;;;;16.95;4.35;;;9.10;99.90;;;;;;5113685;28;20204;-61
2024/01/01 11:53:19;;;;;;;17.48;4.53;;;9.20;99.90;;;;;;5113605;28;20173;-59
2024/01/01 11:55:45;;;;;;;16.10;4.15;;;9.20;99.90;;;;;;5113668;28;20177;-59
2024/01/01 11:58:12;;;;;;;19.83;4.93;;;9.30;99.90;;;;;;5113642;28;20188;-59
2024/01/01 12:00:39;;;;;;;15.90;4.53;;;9.30;99.90;;;;;;5113512;28;20177;-61
2024/01/01 12:03:05;;;;;;;12.93;4.55;;;9.10;99.90;;;;;;5113555;28;20182;-59
2024/01/01 12:05:32;;;;;;;12.52;4.30;;;9.10;99.90;;;;;;5113573;28;20205;-60
2024/01/01 12:07:59;;;;;;;13.90;3.85;;;9.10;99.90;;;;;;5113361;28;20216;-61
2024/01/01 12:10:26;;;;;;;18.92;4.63;;;9.10;99.90;;;;;;5113248;28;20182;-61
2024/01/01 12:13:00;;;;;;;18.58;4.57;;;9.10;99.90;;;;;;5113319;28;20177;-61
2024/01/01 12:15:30;;;;;;;17.92;5.47;;;9.00;99.90;;;;;;5113335;28;20656;-61
2024/01/01 12:17:56;;;;;;;15.35;4.50;;;9.00;99.90;;;;;;5113443;28;20170;-60
2024/01/01 12:20:25;;;;;;;13.52;4.35;;;8.90;99.90;;;;;;5113677;28;20177;-60
2024/01/01 12:22:53;;;;;;;18.45;4.85;;;8.90;99.90;;;;;;5113394;28;20233;-61
2024/01/01 12:25:21;;;;;;;15.15;4.30;;;9.00;99.90;;;;;;5112990;28;20271;-61
2024/01/01 12:28:01;;;;;;;18.13;5.00;;;8.90;99.90;;;;;;5112336;28;20558;-60
2024/01/01 12:30:27;;;;;;;16.38;4.53;;;8.90;99.90;;;;;;5113469;28;20204;-61
2024/01/01 12:32:54;;;;;;;15.38;5.00;;;8.70;99.90;;;;;;5117019;28;20162;-61
2024/01/01 12:35:19;;;;;;;14.55;4.53;;;8.80;99.90;;;;;;5116796;28;20178;-60
2024/01/01 12:37:47;;;;;;;17.58;5.50;;;8.70;99.90;;;;;;5116827;28;20184;-61
2024/01/01 12:40:14;;;;;;;16.48;5.50;;;8.60;99.90;;;;;;5116833;28;20303;-61
2024/01/01 12:42:39;;;;;;;15.93;4.53;;;8.50;99.90;;;;;;5116713;28;20610;-61
2024/01/01 12:45:05;;;;;;;18.63;5.15;;;8.60;99.90;;;;;;5116664;28;20176;-61
2024/01/01 12:47:31;;;;;;;19.13;5.43;;;8.60;99.90;;;;;;5116555;28;20299;-62